sensor_id;sensor_type;location;lat;lon;timestamp;P1;durP1;ratioP1;P2;durP2;ratioP2
86223;SDS011;76887;48.558;12.170;2024-03-17T00:00:16;9.57;;;5.00;;
86223;SDS011;76887;48.558;12.170;2024-03-17T00:02:44;8.13;;;3.28;;
86223;SDS011;76887;48.558;12.170;2024-03-17T00:05:10;7.40;;;3.80;;
86223;SDS011;76887;48.558;12.170;2024-03-17T00:07:35;6.55;;;3.17;;
86223;SDS011;76887;48.558;12.170;2024-03-17T00:10:01;7.57;;;3.72;;
86223;SDS011;76887;48.558;12.170;2024-03-17T00:12:27;8.93;;;4.28;;
86223;SDS011;76887;48.558;12.170;2024-03-17T00:14:52;8.35;;;4.43;;
86223;SDS011;76887;48.558;12.170;2024-03-17T00:17:18;8.70;;;4.43;;
86223;SDS011;76887;48.558;12.170;2024-03-17T00:19:46;7.88;;;4.28;;
86223;SDS011;76887;48.558;12.170;2024-03-17T00:22:14;9.35;;;3.95;;
86223;SDS011;76887;48.558;12.170;2024-03-17T00:24:40;8.60;;;3.92;;
86223;SDS011;76887;48.558;12.170;2024-03-17T00:27:08;8.20;;;3.97;;
86223;SDS011;76887;48.558;12.170;2024-03-17T00:29:34;7.22;;;3.75;;
86223;SDS011;76887;48.558;12.170;2024-03-17T00:32:00;8.27;;;4.70;;
86223;SDS011;76887;48.558;12.170;2024-03-17T00:34:25;8.43;;;4.40;;
86223;SDS011;76887;48.558;12.170;2024-03-17T00:36:51;7.93;;;3.47;;
86223;SDS011;76887;48.558;12.170;2024-03-17T00:39:17;8.18;;;4.50;;
86223;SDS011;76887;48.558;12.170;2024-03-17T00:41:43;9.00;;;5.10;;
86223;SDS011;76887;48.558;12.170;2024-03-17T00:44:09;9.57;;;6.20;;
86223;SDS011;76887;48.558;12.170;2024-03-17T00:46:35;8.15;;;4.07;;
86223;SDS011;76887;48.558;12.170;2024-03-17T00:49:00;9.60;;;4.28;;
86223;SDS011;76887;48.558;12.170;2024-03-17T00:51:26;7.75;;;4.10;;
86223;SDS011;76887;48.558;12.170;2024-03-17T00:53:52;7.55;;;3.40;;
86223;SDS011;76887;48.558;12.170;2024-03-17T00:56:17;6.63;;;3.30;;
86223;SDS011;76887;48.558;12.170;2024-03-17T00:58:43;8.65;;;4.15;;
86223;SDS011;76887;48.558;12.170;2024-03-17T01:01:10;8.13;;;4.28;;
86223;SDS011;76887;48.558;12.170;2024-03-17T01:03:36;7.82;;;4.18;;
86223;SDS011;76887;48.558;12.170;2024-03-17T01:06:05;7.97;;;4.18;;
86223;SDS011;76887;48.558;12.170;2024-03-17T01:08:30;8.60;;;3.95;;
86223;SDS011;76887;48.558;12.170;2024-03-17T01:10:56;7.70;;;3.88;;
86223;SDS011;76887;48.558;12.170;2024-03-17T01:13:23;7.18;;;3.75;;
86223;SDS011;76887;48.558;12.170;2024-03-17T01:15:52;8.38;;;3.63;;
86223;SDS011;76887;48.558;12.170;2024-03-17T01:18:18;7.47;;;4.45;;
86223;SDS011;76887;48.558;12.170;2024-03-17T01:20:44;9.45;;;4.28;;
86223;SDS011;76887;48.558;12.170;2024-03-17T01:23:10;7.53;;;3.97;;
86223;SDS011;76887;48.558;12.170;2024-03-17T01:25:36;8.68;;;4.18;;
86223;SDS011;76887;48.558;12.170;2024-03-17T01:28:02;7.20;;;3.63;;
86223;SDS011;76887;48.558;12.170;2024-03-17T01:30:29;6.50;;;3.47;;
86223;SDS011;76887;48.558;12.170;2024-03-17T01:32:55;8.20;;;3.83;;
86223;SDS011;76887;48.558;12.170;2024-03-17T01:35:20;7.32;;;3.50;;
86223;SDS011;76887;48.558;12.170;2024-03-17T01:37:46;8.05;;;4.05;;
86223;SDS011;76887;48.558;12.170;2024-03-17T01:40:12;7.13;;;3.63;;
86223;SDS011;76887;48.558;12.170;2024-03-17T01:42:38;8.32;;;3.90;;
86223;SDS011;76887;48.558;12.170;2024-03-17T01:45:18;8.75;;;3.30;;
86223;SDS011;76887;48.558;12.170;2024-03-17T01:47:51;7.32;;;3.95;;
86223;SDS011;76887;48.558;12.170;2024-03-17T01:50:17;6.18;;;2.95;;
86223;SDS011;76887;48.558;12.170;2024-03-17T01:52:46;6.32;;;3.38;;
86223;SDS011;76887;48.558;12.170;2024-03-17T01:55:13;6.13;;;3.40;;
86223;SDS011;76887;48.558;12.170;2024-03-17T01:57:39;8.60;;;3.65;;
86223;SDS011;76887;48.558;12.170;2024-03-17T02:00:05;5.97;;;2.65;;
86223;SDS011;76887;48.558;12.170;2024-03-17T02:02:34;7.57;;;3.38;;
86223;SDS011;76887;48.558;12.170;2024-03-17T02:04:59;7.88;;;4.53;;
86223;SDS011;76887;48.558;12.170;2024-03-17T02:07:25;7.20;;;4.13;;
86223;SDS011;76887;48.558;12.170;2024-03-17T02:09:51;6.88;;;3.08;;
86223;SDS011;76887;48.558;12.170;2024-03-17T02:12:16;5.95;;;2.90;;
86223;SDS011;76887;48.558;12.170;2024-03-17T02:14:42;7.30;;;3.53;;
86223;SDS011;76887;48.558;12.170;2024-03-17T02:17:07;7.68;;;3.80;;
86223;SDS011;76887;48.558;12.170;2024-03-17T02:19:33;6.82;;;3.60;;
86223;SDS011;76887;48.558;12.170;2024-03-17T02:22:00;6.07;;;3.08;;
86223;SDS011;76887;48.558;12.170;2024-03-17T02:24:26;7.55;;;3.83;;
86223;SDS011;76887;48.558;12.170;2024-03-17T02:26:54;9.25;;;3.97;;
86223;SDS011;76887;48.558;12.170;2024-03-17T02:29:20;6.15;;;2.83;;
86223;SDS011;76887;48.558;12.170;2024-03-17T02:31:48;8.65;;;4.38;;
86223;SDS011;76887;48.558;12.170;2024-03-17T02:34:14;9.68;;;4.53;;
86223;SDS011;76887;48.558;12.170;2024-03-17T02:36:42;7.25;;;3.42;;
86223;SDS011;76887;48.558;12.170;2024-03-17T02:39:08;7.72;;;3.85;;
86223;SDS011;76887;48.558;12.170;2024-03-17T02:41:52;7.88;;;3.85;;
86223;SDS011;76887;48.558;12.170;2024-03-17T02:44:17;7.43;;;3.78;;
86223;SDS011;76887;48.558;12.170;2024-03-17T02:46:43;8.02;;;4.30;;
86223;SDS011;76887;48.558;12.170;2024-03-17T02:49:09;7.18;;;3.75;;
86223;SDS011;76887;48.558;12.170;2024-03-17T02:51:39;8.18;;;4.22;;
86223;SDS011;76887;48.558;12.170;2024-03-17T02:54:05;9.05;;;3.92;;
86223;SDS011;76887;48.558;12.170;2024-03-17T02:56:31;9.32;;;4.43;;
86223;SDS011;76887;48.558;12.170;2024-03-17T02:58:57;8.77;;;5.10;;
86223;SDS011;76887;48.558;12.170;2024-03-17T03:01:22;10.73;;;4.97;;
86223;SDS011;76887;48.558;12.170;2024-03-17T03:03:48;8.20;;;4.10;;
86223;SDS011;76887;48.558;12.170;2024-03-17T03:06:28;9.32;;;4.20;;
86223;SDS011;76887;48.558;12.170;2024-03-17T03:08:54;7.97;;;4.38;;
86223;SDS011;76887;48.558;12.170;2024-03-17T03:11:23;7.25;;;4.10;;
86223;SDS011;76887;48.558;12.170;2024-03-17T03:13:51;8.50;;;4.47;;
86223;SDS011;76887;48.558;12.170;2024-03-17T03:16:17;8.18;;;3.80;;
86223;SDS011;76887;48.558;12.170;2024-03-17T03:18:44;9.48;;;5.18;;
86223;SDS011;76887;48.558;12.170;2024-03-17T03:21:13;11.65;;;5.38;;
86223;SDS011;76887;48.558;12.170;2024-03-17T03:23:39;8.48;;;4.55;;
86223;SDS011;76887;48.558;12.170;2024-03-17T03:26:04;8.15;;;4.15;;
86223;SDS011;76887;48.558;12.170;2024-03-17T03:28:32;9.00;;;4.63;;
86223;SDS011;76887;48.558;12.170;2024-03-17T03:30:58;9.45;;;4.78;;
86223;SDS011;76887;48.558;12.170;2024-03-17T03:33:25;7.88;;;3.70;;
86223;SDS011;76887;48.558;12.170;2024-03-17T03:35:50;6.93;;;3.08;;
86223;SDS011;76887;48.558;12.170;2024-03-17T03:38:16;5.57;;;2.65;;
86223;SDS011;76887;48.558;12.170;2024-03-17T03:40:44;6.30;;;3.15;;
86223;SDS011;76887;48.558;12.170;2024-03-17T03:43:09;5.13;;;2.53;;
86223;SDS011;76887;48.558;12.170;2024-03-17T03:45:39;5.90;;;2.70;;
86223;SDS011;76887;48.558;12.170;2024-03-17T03:48:05;7.07;;;3.22;;
86223;SDS011;76887;48.558;12.170;2024-03-17T03:50:34;5.88;;;2.85;;
86223;SDS011;76887;48.558;12.170;2024-03-17T03:53:00;7.88;;;3.85;;
86223;SDS011;76887;48.558;12.170;2024-03-17T03:55:26;7.93;;;3.70;;
86223;SDS011;76887;48.558;12.170;2024-03-17T03:57:52;8.15;;;4.60;;
86223;SDS011;76887;48.558;12.170;2024-03-17T04:00:18;7.28;;;3.42;;
86223;SDS011;76887;48.558;12.170;2024-03-17T04:02:49;7.70;;;3.70;;
86223;SDS011;76887;48.558;12.170;2024-03-17T04:05:17;8.43;;;4.53;;
86223;SDS011;76887;48.558;12.170;2024-03-17T04:07:47;9.10;;;4.25;;
86223;SDS011;76887;48.558;12.170;2024-03-17T04:10:13;9.38;;;4.50;;
86223;SDS011;76887;48.558;12.170;2024-03-17T04:12:40;9.05;;;4.78;;
86223;SDS011;76887;48.558;12.170;2024-03-17T04:15:06;10.07;;;5.78;;
86223;SDS011;76887;48.558;12.170;2024-03-17T04:17:32;9.55;;;5.03;;
86223;SDS011;76887;48.558;12.170;2024-03-17T04:19:58;9.95;;;5.40;;
86223;SDS011;76887;48.558;12.170;2024-03-17T04:22:24;9.30;;;5.00;;
86223;SDS011;76887;48.558;12.170;2024-03-17T04:24:56;11.73;;;5.80;;
86223;SDS011;76887;48.558;12.170;2024-03-17T04:27:23;9.15;;;4.80;;
86223;SDS011;76887;48.558;12.170;2024-03-17T04:29:49;9.43;;;5.10;;
86223;SDS011;76887;48.558;12.170;2024-03-17T04:32:15;9.60;;;5.10;;
86223;SDS011;76887;48.558;12.170;2024-03-17T04:34:41;9.48;;;5.13;;
86223;SDS011;76887;48.558;12.170;2024-03-17T04:37:09;9.77;;;5.18;;
86223;SDS011;76887;48.558;12.170;2024-03-17T04:39:41;8.10;;;4.32;;
86223;SDS011;76887;48.558;12.170;2024-03-17T04:42:12;9.95;;;5.20;;
86223;SDS011;76887;48.558;12.170;2024-03-17T04:44:42;9.80;;;5.35;;
86223;SDS011;76887;48.558;12.170;2024-03-17T04:47:08;11.25;;;6.07;;
86223;SDS011;76887;48.558;12.170;2024-03-17T04:49:41;10.73;;;6.20;;
86223;SDS011;76887;48.558;12.170;2024-03-17T04:52:09;11.73;;;6.13;;
86223;SDS011;76887;48.558;12.170;2024-03-17T04:54:35;10.02;;;6.00;;
86223;SDS011;76887;48.558;12.170;2024-03-17T04:57:02;11.75;;;6.05;;
86223;SDS011;76887;48.558;12.170;2024-03-17T04:59:28;13.60;;;6.85;;
86223;SDS011;76887;48.558;12.170;2024-03-17T05:01:54;12.48;;;6.88;;
86223;SDS011;76887;48.558;12.170;2024-03-17T05:04:20;10.07;;;5.50;;
86223;SDS011;76887;48.558;12.170;2024-03-17T05:06:46;10.27;;;5.53;;
86223;SDS011;76887;48.558;12.170;2024-03-17T05:09:18;9.93;;;5.38;;
86223;SDS011;76887;48.558;12.170;2024-03-17T05:11:45;9.55;;;5.00;;
86223;SDS011;76887;48.558;12.170;2024-03-17T05:14:10;9.18;;;4.97;;
86223;SDS011;76887;48.558;12.170;2024-03-17T05:16:37;9.05;;;4.65;;
86223;SDS011;76887;48.558;12.170;2024-03-17T05:19:03;9.15;;;4.80;;
86223;SDS011;76887;48.558;12.170;2024-03-17T05:21:29;8.90;;;4.93;;
86223;SDS011;76887;48.558;12.170;2024-03-17T05:24:00;12.50;;;6.18;;
86223;SDS011;76887;48.558;12.170;2024-03-17T05:26:27;11.82;;;5.95;;
86223;SDS011;76887;48.558;12.170;2024-03-17T05:28:57;12.95;;;6.35;;
86223;SDS011;76887;48.558;12.170;2024-03-17T05:31:22;11.43;;;6.13;;
86223;SDS011;76887;48.558;12.170;2024-03-17T05:33:48;10.77;;;5.68;;
86223;SDS011;76887;48.558;12.170;2024-03-17T05:36:17;13.13;;;5.90;;
86223;SDS011;76887;48.558;12.170;2024-03-17T05:38:45;12.75;;;7.05;;
86223;SDS011;76887;48.558;12.170;2024-03-17T05:41:11;11.45;;;5.78;;
86223;SDS011;76887;48.558;12.170;2024-03-17T05:43:39;12.52;;;6.18;;
86223;SDS011;76887;48.558;12.170;2024-03-17T05:46:09;10.52;;;5.65;;
86223;SDS011;76887;48.558;12.170;2024-03-17T05:48:36;10.77;;;5.95;;
86223;SDS011;76887;48.558;12.170;2024-03-17T05:51:07;10.45;;;5.68;;
86223;SDS011;76887;48.558;12.170;2024-03-17T05:53:37;9.82;;;4.72;;
86223;SDS011;76887;48.558;12.170;2024-03-17T05:56:09;9.63;;;5.78;;
86223;SDS011;76887;48.558;12.170;2024-03-17T05:58:37;13.00;;;6.28;;
86223;SDS011;76887;48.558;12.170;2024-03-17T06:01:03;10.80;;;5.95;;
86223;SDS011;76887;48.558;12.170;2024-03-17T06:03:35;12.20;;;6.10;;
86223;SDS011;76887;48.558;12.170;2024-03-17T06:06:02;11.45;;;6.72;;
86223;SDS011;76887;48.558;12.170;2024-03-17T06:08:47;13.27;;;7.43;;
86223;SDS011;76887;48.558;12.170;2024-03-17T06:11:14;11.13;;;5.68;;
86223;SDS011;76887;48.558;12.170;2024-03-17T06:13:41;12.02;;;6.22;;
86223;SDS011;76887;48.558;12.170;2024-03-17T06:16:07;14.57;;;6.45;;
86223;SDS011;76887;48.558;12.170;2024-03-17T06:18:32;16.42;;;8.05;;
86223;SDS011;76887;48.558;12.170;2024-03-17T06:20:58;12.45;;;7.68;;
86223;SDS011;76887;48.558;12.170;2024-03-17T06:23:24;15.50;;;7.63;;
86223;SDS011;76887;48.558;12.170;2024-03-17T06:25:55;13.63;;;7.63;;
86223;SDS011;76887;48.558;12.170;2024-03-17T06:28:21;15.43;;;8.18;;
86223;SDS011;76887;48.558;12.170;2024-03-17T06:30:59;15.15;;;7.70;;
86223;SDS011;76887;48.558;12.170;2024-03-17T06:33:25;16.55;;;8.32;;
86223;SDS011;76887;48.558;12.170;2024-03-17T06:35:56;14.65;;;8.05;;
86223;SDS011;76887;48.558;12.170;2024-03-17T06:38:22;15.13;;;8.43;;
86223;SDS011;76887;48.558;12.170;2024-03-17T06:40:48;16.30;;;7.90;;
86223;SDS011;76887;48.558;12.170;2024-03-17T06:43:15;14.20;;;7.72;;
86223;SDS011;76887;48.558;12.170;2024-03-17T06:45:41;14.18;;;8.05;;
86223;SDS011;76887;48.558;12.170;2024-03-17T06:48:07;16.70;;;8.10;;
86223;SDS011;76887;48.558;12.170;2024-03-17T06:50:33;14.15;;;7.35;;
86223;SDS011;76887;48.558;12.170;2024-03-17T06:52:58;13.57;;;8.13;;
86223;SDS011;76887;48.558;12.170;2024-03-17T06:55:24;14.85;;;8.40;;
86223;SDS011;76887;48.558;12.170;2024-03-17T06:57:50;14.25;;;7.65;;
86223;SDS011;76887;48.558;12.170;2024-03-17T07:00:16;15.73;;;7.53;;
86223;SDS011;76887;48.558;12.170;2024-03-17T07:02:49;15.63;;;8.43;;
86223;SDS011;76887;48.558;12.170;2024-03-17T07:05:17;15.63;;;7.78;;
86223;SDS011;76887;48.558;12.170;2024-03-17T07:07:44;14.52;;;9.00;;
86223;SDS011;76887;48.558;12.170;2024-03-17T07:10:13;17.95;;;9.27;;
86223;SDS011;76887;48.558;12.170;2024-03-17T07:12:38;15.07;;;9.02;;
86223;SDS011;76887;48.558;12.170;2024-03-17T07:15:05;15.38;;;9.38;;
86223;SDS011;76887;48.558;12.170;2024-03-17T07:17:31;16.08;;;9.10;;
86223;SDS011;76887;48.558;12.170;2024-03-17T07:19:56;15.70;;;9.27;;
86223;SDS011;76887;48.558;12.170;2024-03-17T07:22:22;15.93;;;10.25;;
86223;SDS011;76887;48.558;12.170;2024-03-17T07:24:54;14.57;;;8.23;;
86223;SDS011;76887;48.558;12.170;2024-03-17T07:27:27;14.13;;;7.72;;
86223;SDS011;76887;48.558;12.170;2024-03-17T07:29:53;17.73;;;9.70;;
86223;SDS011;76887;48.558;12.170;2024-03-17T07:32:19;15.40;;;8.02;;
86223;SDS011;76887;48.558;12.170;2024-03-17T07:34:45;16.30;;;7.95;;
86223;SDS011;76887;48.558;12.170;2024-03-17T07:37:11;14.02;;;8.38;;
86223;SDS011;76887;48.558;12.170;2024-03-17T07:39:36;16.77;;;8.15;;
86223;SDS011;76887;48.558;12.170;2024-03-17T07:42:06;15.20;;;8.75;;
86223;SDS011;76887;48.558;12.170;2024-03-17T07:44:32;15.45;;;7.90;;
86223;SDS011;76887;48.558;12.170;2024-03-17T07:47:01;13.40;;;7.45;;
86223;SDS011;76887;48.558;12.170;2024-03-17T07:49:29;14.80;;;8.23;;
86223;SDS011;76887;48.558;12.170;2024-03-17T07:51:55;13.30;;;7.90;;
86223;SDS011;76887;48.558;12.170;2024-03-17T07:54:23;14.80;;;7.35;;
86223;SDS011;76887;48.558;12.170;2024-03-17T07:56:50;13.82;;;8.07;;
86223;SDS011;76887;48.558;12.170;2024-03-17T07:59:15;14.32;;;8.18;;
86223;SDS011;76887;48.558;12.170;2024-03-17T08:01:43;13.20;;;7.50;;
86223;SDS011;76887;48.558;12.170;2024-03-17T08:04:10;12.95;;;7.15;;
86223;SDS011;76887;48.558;12.170;2024-03-17T08:06:48;12.57;;;6.60;;
86223;SDS011;76887;48.558;12.170;2024-03-17T08:11:41;12.93;;;7.05;;
86223;SDS011;76887;48.558;12.170;2024-03-17T08:14:12;13.45;;;7.38;;
86223;SDS011;76887;48.558;12.170;2024-03-17T08:16:40;12.30;;;7.50;;
86223;SDS011;76887;48.558;12.170;2024-03-17T08:19:06;12.30;;;7.05;;
86223;SDS011;76887;48.558;12.170;2024-03-17T08:21:33;11.13;;;6.63;;
86223;SDS011;76887;48.558;12.170;2024-03-17T08:23:58;11.90;;;6.80;;
86223;SDS011;76887;48.558;12.170;2024-03-17T08:26:24;14.27;;;6.90;;
86223;SDS011;76887;48.558;12.170;2024-03-17T08:28:50;12.18;;;6.45;;
86223;SDS011;76887;48.558;12.170;2024-03-17T08:31:15;12.20;;;7.00;;
86223;SDS011;76887;48.558;12.170;2024-03-17T08:33:41;11.80;;;6.30;;
86223;SDS011;76887;48.558;12.170;2024-03-17T08:36:07;13.32;;;6.65;;
86223;SDS011;76887;48.558;12.170;2024-03-17T08:38:35;11.77;;;6.22;;
86223;SDS011;76887;48.558;12.170;2024-03-17T08:41:05;13.63;;;6.80;;
86223;SDS011;76887;48.558;12.170;2024-03-17T08:43:32;11.35;;;6.40;;
86223;SDS011;76887;48.558;12.170;2024-03-17T08:45:59;11.32;;;6.28;;
86223;SDS011;76887;48.558;12.170;2024-03-17T08:48:29;12.45;;;6.40;;
86223;SDS011;76887;48.558;12.170;2024-03-17T08:51:08;11.18;;;6.18;;
86223;SDS011;76887;48.558;12.170;2024-03-17T08:53:35;12.73;;;6.47;;
86223;SDS011;76887;48.558;12.170;2024-03-17T08:56:02;10.68;;;6.15;;
86223;SDS011;76887;48.558;12.170;2024-03-17T08:58:29;11.27;;;5.70;;
86223;SDS011;76887;48.558;12.170;2024-03-17T09:00:55;12.60;;;6.00;;
86223;SDS011;76887;48.558;12.170;2024-03-17T09:03:21;12.35;;;5.88;;
86223;SDS011;76887;48.558;12.170;2024-03-17T09:05:47;14.05;;;5.80;;
86223;SDS011;76887;48.558;12.170;2024-03-17T09:10:59;12.07;;;5.57;;
86223;SDS011;76887;48.558;12.170;2024-03-17T09:36:46;11.10;;;5.32;;
86223;SDS011;76887;48.558;12.170;2024-03-17T09:39:12;10.82;;;5.55;;
86223;SDS011;76887;48.558;12.170;2024-03-17T09:41:39;10.55;;;5.53;;
86223;SDS011;76887;48.558;12.170;2024-03-17T09:44:05;12.52;;;5.80;;
86223;SDS011;76887;48.558;12.170;2024-03-17T09:46:35;9.95;;;5.30;;
86223;SDS011;76887;48.558;12.170;2024-03-17T09:49:01;9.95;;;5.13;;
86223;SDS011;76887;48.558;12.170;2024-03-17T09:51:27;9.75;;;5.13;;
86223;SDS011;76887;48.558;12.170;2024-03-17T09:53:52;9.77;;;5.25;;
86223;SDS011;76887;48.558;12.170;2024-03-17T09:56:19;10.40;;;4.93;;
86223;SDS011;76887;48.558;12.170;2024-03-17T09:58:46;10.55;;;5.72;;
86223;SDS011;76887;48.558;12.170;2024-03-17T10:01:12;11.32;;;5.53;;
86223;SDS011;76887;48.558;12.170;2024-03-17T10:06:13;10.05;;;5.43;;
86223;SDS011;76887;48.558;12.170;2024-03-17T10:08:44;9.60;;;4.95;;
86223;SDS011;76887;48.558;12.170;2024-03-17T10:11:11;9.73;;;5.63;;
86223;SDS011;76887;48.558;12.170;2024-03-17T10:13:45;8.15;;;4.57;;
86223;SDS011;76887;48.558;12.170;2024-03-17T10:16:24;10.65;;;5.38;;
86223;SDS011;76887;48.558;12.170;2024-03-17T10:19:13;10.13;;;4.60;;
86223;SDS011;76887;48.558;12.170;2024-03-17T10:21:41;10.95;;;5.35;;
86223;SDS011;76887;48.558;12.170;2024-03-17T10:24:14;8.73;;;4.30;;
86223;SDS011;76887;48.558;12.170;2024-03-17T10:26:49;9.45;;;4.95;;
86223;SDS011;76887;48.558;12.170;2024-03-17T10:29:31;9.45;;;5.07;;
86223;SDS011;76887;48.558;12.170;2024-03-17T10:32:18;9.00;;;4.72;;
86223;SDS011;76887;48.558;12.170;2024-03-17T10:34:47;7.55;;;3.58;;
86223;SDS011;76887;48.558;12.170;2024-03-17T10:37:14;9.57;;;5.03;;
86223;SDS011;76887;48.558;12.170;2024-03-17T10:39:43;8.98;;;4.65;;
86223;SDS011;76887;48.558;12.170;2024-03-17T10:42:11;9.27;;;4.57;;
86223;SDS011;76887;48.558;12.170;2024-03-17T10:44:39;8.48;;;4.88;;
86223;SDS011;76887;48.558;12.170;2024-03-17T10:47:06;8.57;;;4.72;;
86223;SDS011;76887;48.558;12.170;2024-03-17T10:49:35;11.25;;;4.53;;
86223;SDS011;76887;48.558;12.170;2024-03-17T10:52:06;9.20;;;4.90;;
86223;SDS011;76887;48.558;12.170;2024-03-17T10:54:34;8.90;;;4.57;;
86223;SDS011;76887;48.558;12.170;2024-03-17T10:59:40;7.68;;;4.07;;
86223;SDS011;76887;48.558;12.170;2024-03-17T11:02:25;7.70;;;3.85;;
86223;SDS011;76887;48.558;12.170;2024-03-17T11:05:00;7.22;;;3.60;;
86223;SDS011;76887;48.558;12.170;2024-03-17T11:09:55;7.03;;;3.85;;
86223;SDS011;76887;48.558;12.170;2024-03-17T11:20:36;8.02;;;4.20;;
86223;SDS011;76887;48.558;12.170;2024-03-17T11:23:05;8.75;;;4.30;;
86223;SDS011;76887;48.558;12.170;2024-03-17T11:28:00;7.00;;;3.70;;
86223;SDS011;76887;48.558;12.170;2024-03-17T11:38:51;7.68;;;3.40;;
86223;SDS011;76887;48.558;12.170;2024-03-17T11:44:15;5.55;;;2.42;;
86223;SDS011;76887;48.558;12.170;2024-03-17T11:46:55;6.80;;;3.20;;
86223;SDS011;76887;48.558;12.170;2024-03-17T11:49:22;6.40;;;2.90;;
86223;SDS011;76887;48.558;12.170;2024-03-17T11:51:49;7.75;;;3.67;;
86223;SDS011;76887;48.558;12.170;2024-03-17T11:54:17;6.90;;;3.40;;
86223;SDS011;76887;48.558;12.170;2024-03-17T11:56:48;7.57;;;3.78;;
86223;SDS011;76887;48.558;12.170;2024-03-17T11:59:15;7.30;;;3.28;;
86223;SDS011;76887;48.558;12.170;2024-03-17T12:01:51;7.60;;;3.17;;
86223;SDS011;76887;48.558;12.170;2024-03-17T12:04:18;5.30;;;2.22;;
86223;SDS011;76887;48.558;12.170;2024-03-17T12:06:45;7.00;;;3.58;;
86223;SDS011;76887;48.558;12.170;2024-03-17T12:11:50;7.85;;;3.70;;
86223;SDS011;76887;48.558;12.170;2024-03-17T12:14:23;7.90;;;3.33;;
86223;SDS011;76887;48.558;12.170;2024-03-17T12:16:51;6.78;;;2.72;;
86223;SDS011;76887;48.558;12.170;2024-03-17T12:19:18;8.30;;;4.18;;
86223;SDS011;76887;48.558;12.170;2024-03-17T12:21:48;7.55;;;3.85;;
86223;SDS011;76887;48.558;12.170;2024-03-17T12:24:18;6.88;;;3.72;;
86223;SDS011;76887;48.558;12.170;2024-03-17T12:26:45;8.55;;;4.07;;
86223;SDS011;76887;48.558;12.170;2024-03-17T12:29:31;8.60;;;4.07;;
86223;SDS011;76887;48.558;12.170;2024-03-17T12:32:02;7.30;;;4.05;;
86223;SDS011;76887;48.558;12.170;2024-03-17T12:34:32;8.27;;;4.28;;
86223;SDS011;76887;48.558;12.170;2024-03-17T12:37:01;7.38;;;3.70;;
86223;SDS011;76887;48.558;12.170;2024-03-17T12:39:28;8.23;;;3.63;;
86223;SDS011;76887;48.558;12.170;2024-03-17T12:42:05;7.90;;;3.90;;
86223;SDS011;76887;48.558;12.170;2024-03-17T12:44:31;7.03;;;3.35;;
86223;SDS011;76887;48.558;12.170;2024-03-17T12:47:12;6.90;;;3.53;;
86223;SDS011;76887;48.558;12.170;2024-03-17T12:49:44;5.75;;;3.25;;
86223;SDS011;76887;48.558;12.170;2024-03-17T12:55:02;8.57;;;4.13;;
86223;SDS011;76887;48.558;12.170;2024-03-17T12:57:48;8.18;;;3.42;;
86223;SDS011;76887;48.558;12.170;2024-03-17T13:00:36;9.88;;;5.15;;
86223;SDS011;76887;48.558;12.170;2024-03-17T13:03:06;8.85;;;4.70;;
86223;SDS011;76887;48.558;12.170;2024-03-17T13:05:32;7.45;;;4.00;;
86223;SDS011;76887;48.558;12.170;2024-03-17T13:08:01;7.97;;;4.18;;
86223;SDS011;76887;48.558;12.170;2024-03-17T13:10:28;8.38;;;4.05;;
86223;SDS011;76887;48.558;12.170;2024-03-17T13:13:01;7.18;;;4.13;;
86223;SDS011;76887;48.558;12.170;2024-03-17T13:15:32;6.43;;;3.30;;
86223;SDS011;76887;48.558;12.170;2024-03-17T13:18:04;7.97;;;4.05;;
86223;SDS011;76887;48.558;12.170;2024-03-17T13:20:33;6.20;;;3.28;;
86223;SDS011;76887;48.558;12.170;2024-03-17T13:23:00;7.22;;;3.38;;
86223;SDS011;76887;48.558;12.170;2024-03-17T13:25:29;6.03;;;3.28;;
86223;SDS011;76887;48.558;12.170;2024-03-17T13:28:01;6.45;;;3.53;;
86223;SDS011;76887;48.558;12.170;2024-03-17T13:30:29;6.55;;;3.50;;
86223;SDS011;76887;48.558;12.170;2024-03-17T13:32:55;6.57;;;3.22;;
86223;SDS011;76887;48.558;12.170;2024-03-17T13:35:25;6.15;;;3.30;;
86223;SDS011;76887;48.558;12.170;2024-03-17T13:37:52;8.40;;;3.60;;
86223;SDS011;76887;48.558;12.170;2024-03-17T13:40:21;7.30;;;3.35;;
86223;SDS011;76887;48.558;12.170;2024-03-17T13:42:48;6.45;;;3.15;;
86223;SDS011;76887;48.558;12.170;2024-03-17T13:45:15;7.32;;;3.53;;
86223;SDS011;76887;48.558;12.170;2024-03-17T13:47:44;6.90;;;3.22;;
86223;SDS011;76887;48.558;12.170;2024-03-17T13:50:16;6.30;;;3.20;;
86223;SDS011;76887;48.558;12.170;2024-03-17T13:52:44;7.90;;;3.35;;
86223;SDS011;76887;48.558;12.170;2024-03-17T13:55:17;6.65;;;3.30;;
86223;SDS011;76887;48.558;12.170;2024-03-17T13:57:46;7.82;;;3.60;;
86223;SDS011;76887;48.558;12.170;2024-03-17T14:00:16;6.50;;;3.80;;
86223;SDS011;76887;48.558;12.170;2024-03-17T14:02:43;5.35;;;2.20;;
86223;SDS011;76887;48.558;12.170;2024-03-17T14:05:12;6.22;;;2.95;;
86223;SDS011;76887;48.558;12.170;2024-03-17T14:07:38;7.00;;;2.63;;
86223;SDS011;76887;48.558;12.170;2024-03-17T14:10:04;5.88;;;2.65;;
86223;SDS011;76887;48.558;12.170;2024-03-17T14:12:31;5.25;;;2.17;;
86223;SDS011;76887;48.558;12.170;2024-03-17T14:14:57;3.72;;;1.63;;
86223;SDS011;76887;48.558;12.170;2024-03-17T14:17:22;6.00;;;2.95;;
86223;SDS011;76887;48.558;12.170;2024-03-17T14:19:48;5.70;;;2.63;;
86223;SDS011;76887;48.558;12.170;2024-03-17T14:22:13;6.57;;;3.15;;
86223;SDS011;76887;48.558;12.170;2024-03-17T14:24:39;6.40;;;3.20;;
86223;SDS011;76887;48.558;12.170;2024-03-17T14:27:06;6.60;;;3.22;;
86223;SDS011;76887;48.558;12.170;2024-03-17T14:29:32;6.97;;;3.60;;
86223;SDS011;76887;48.558;12.170;2024-03-17T14:31:58;6.93;;;2.90;;
86223;SDS011;76887;48.558;12.170;2024-03-17T14:34:24;6.55;;;3.22;;
86223;SDS011;76887;48.558;12.170;2024-03-17T14:36:52;6.45;;;3.28;;
86223;SDS011;76887;48.558;12.170;2024-03-17T14:39:17;6.60;;;3.13;;
86223;SDS011;76887;48.558;12.170;2024-03-17T14:41:43;7.60;;;3.42;;
86223;SDS011;76887;48.558;12.170;2024-03-17T14:44:08;6.75;;;3.65;;
86223;SDS011;76887;48.558;12.170;2024-03-17T14:46:34;8.77;;;4.13;;
86223;SDS011;76887;48.558;12.170;2024-03-17T14:49:00;7.03;;;4.22;;
86223;SDS011;76887;48.558;12.170;2024-03-17T14:51:26;7.18;;;3.58;;
86223;SDS011;76887;48.558;12.170;2024-03-17T14:53:52;7.18;;;3.60;;
86223;SDS011;76887;48.558;12.170;2024-03-17T14:56:18;7.70;;;3.58;;
86223;SDS011;76887;48.558;12.170;2024-03-17T14:58:44;8.15;;;3.65;;
86223;SDS011;76887;48.558;12.170;2024-03-17T15:01:14;9.25;;;4.57;;
86223;SDS011;76887;48.558;12.170;2024-03-17T15:03:40;6.57;;;3.67;;
86223;SDS011;76887;48.558;12.170;2024-03-17T15:06:12;7.35;;;3.58;;
86223;SDS011;76887;48.558;12.170;2024-03-17T15:08:40;6.72;;;3.28;;
86223;SDS011;76887;48.558;12.170;2024-03-17T15:11:05;7.20;;;3.63;;
86223;SDS011;76887;48.558;12.170;2024-03-17T15:13:33;6.10;;;3.28;;
86223;SDS011;76887;48.558;12.170;2024-03-17T15:16:00;7.03;;;3.42;;
86223;SDS011;76887;48.558;12.170;2024-03-17T15:18:28;6.97;;;3.75;;
86223;SDS011;76887;48.558;12.170;2024-03-17T15:20:54;6.60;;;3.00;;
86223;SDS011;76887;48.558;12.170;2024-03-17T15:23:22;6.10;;;3.30;;
86223;SDS011;76887;48.558;12.170;2024-03-17T15:26:03;7.00;;;3.50;;
86223;SDS011;76887;48.558;12.170;2024-03-17T15:28:42;7.25;;;3.45;;
86223;SDS011;76887;48.558;12.170;2024-03-17T15:31:08;6.88;;;3.28;;
86223;SDS011;76887;48.558;12.170;2024-03-17T15:33:36;6.57;;;3.40;;
86223;SDS011;76887;48.558;12.170;2024-03-17T15:36:03;5.78;;;3.25;;
86223;SDS011;76887;48.558;12.170;2024-03-17T15:38:29;7.15;;;3.53;;